Zonhoven, Belgium
Current Conditions -  °F | °C
As of 4:55 AM on Wednesday 28 Jan 2015 (Local Time) from EBBL Reporting Station
Broken Clouds Broken Clouds  
Wind Chill: 32°   Ceiling: 4000
Heat Index: 39°   Visibility: 5mi
Dew Point: 37°   Wind: 10mph
Humidity: 93%   Direction: 220°SW
Pressure: 30.03"   Gusts: NA
Location:  50.99°N, 5.37°E
Report Text: EBBL 280355Z 22009KT 8000 BKN040 04/03 Q1017 BLU
Loading
Personal Weather Stations






























Interactive Weather Map New forecast layout! Learn more

10-Day Weather Forecast

Advertisements
Track Severe Weather on mobile